sensor_id;sensor_type;location;lat;lon;timestamp;P1;durP1;ratioP1;P2;durP2;ratioP2
75289;SDS011;63883;48.996;20.804;2023-06-22T00:00:50;14.90;;;11.10;;
75289;SDS011;63883;48.996;20.804;2023-06-22T00:03:30;15.20;;;11.32;;
75289;SDS011;63883;48.996;20.804;2023-06-22T00:05:55;14.80;;;10.15;;
75289;SDS011;63883;48.996;20.804;2023-06-22T00:08:22;13.68;;;10.68;;
75289;SDS011;63883;48.996;20.804;2023-06-22T00:10:47;14.93;;;11.27;;
75289;SDS011;63883;48.996;20.804;2023-06-22T00:13:15;16.25;;;11.10;;
75289;SDS011;63883;48.996;20.804;2023-06-22T00:15:42;18.63;;;12.52;;
75289;SDS011;63883;48.996;20.804;2023-06-22T00:18:08;19.98;;;13.18;;
75289;SDS011;63883;48.996;20.804;2023-06-22T00:20:35;19.55;;;13.05;;
75289;SDS011;63883;48.996;20.804;2023-06-22T00:23:05;17.30;;;12.25;;
75289;SDS011;63883;48.996;20.804;2023-06-22T00:25:37;19.90;;;12.98;;
75289;SDS011;63883;48.996;20.804;2023-06-22T00:28:05;16.27;;;11.32;;
75289;SDS011;63883;48.996;20.804;2023-06-22T00:30:33;14.98;;;11.45;;
75289;SDS011;63883;48.996;20.804;2023-06-22T00:32:59;17.38;;;11.38;;
75289;SDS011;63883;48.996;20.804;2023-06-22T00:35:26;16.52;;;10.65;;
75289;SDS011;63883;48.996;20.804;2023-06-22T00:37:58;15.27;;;11.07;;
75289;SDS011;63883;48.996;20.804;2023-06-22T00:40:32;16.83;;;10.98;;
75289;SDS011;63883;48.996;20.804;2023-06-22T00:42:59;15.10;;;10.77;;
75289;SDS011;63883;48.996;20.804;2023-06-22T00:45:25;13.95;;;10.40;;
75289;SDS011;63883;48.996;20.804;2023-06-22T00:47:52;15.15;;;10.55;;
75289;SDS011;63883;48.996;20.804;2023-06-22T00:50:20;15.65;;;10.18;;
75289;SDS011;63883;48.996;20.804;2023-06-22T00:52:48;14.25;;;10.23;;
75289;SDS011;63883;48.996;20.804;2023-06-22T00:55:16;17.38;;;11.88;;
75289;SDS011;63883;48.996;20.804;2023-06-22T00:57:45;19.10;;;13.68;;
75289;SDS011;63883;48.996;20.804;2023-06-22T01:00:11;20.70;;;12.85;;
75289;SDS011;63883;48.996;20.804;2023-06-22T01:02:44;21.45;;;13.68;;
75289;SDS011;63883;48.996;20.804;2023-06-22T01:05:14;21.83;;;14.38;;
75289;SDS011;63883;48.996;20.804;2023-06-22T01:10:30;19.88;;;13.82;;
75289;SDS011;63883;48.996;20.804;2023-06-22T01:16:14;17.38;;;12.13;;
75289;SDS011;63883;48.996;20.804;2023-06-22T01:18:44;18.27;;;12.05;;
75289;SDS011;63883;48.996;20.804;2023-06-22T01:26:37;15.93;;;10.45;;
75289;SDS011;63883;48.996;20.804;2023-06-22T01:29:08;14.98;;;10.52;;
75289;SDS011;63883;48.996;20.804;2023-06-22T01:31:37;13.90;;;10.23;;
75289;SDS011;63883;48.996;20.804;2023-06-22T01:34:06;18.48;;;11.07;;
75289;SDS011;63883;48.996;20.804;2023-06-22T01:36:33;16.55;;;10.18;;
75289;SDS011;63883;48.996;20.804;2023-06-22T01:39:00;14.55;;;10.65;;
75289;SDS011;63883;48.996;20.804;2023-06-22T01:43:55;15.93;;;9.90;;
75289;SDS011;63883;48.996;20.804;2023-06-22T01:46:22;13.52;;;9.10;;
75289;SDS011;63883;48.996;20.804;2023-06-22T01:48:49;14.30;;;9.30;;
75289;SDS011;63883;48.996;20.804;2023-06-22T01:51:16;10.95;;;7.95;;
75289;SDS011;63883;48.996;20.804;2023-06-22T01:53:41;13.68;;;8.95;;
75289;SDS011;63883;48.996;20.804;2023-06-22T01:56:08;12.52;;;8.80;;
75289;SDS011;63883;48.996;20.804;2023-06-22T01:58:34;11.75;;;8.73;;
75289;SDS011;63883;48.996;20.804;2023-06-22T02:03:37;14.73;;;9.82;;
75289;SDS011;63883;48.996;20.804;2023-06-22T02:06:08;12.45;;;9.15;;
75289;SDS011;63883;48.996;20.804;2023-06-22T02:08:41;12.75;;;8.80;;
75289;SDS011;63883;48.996;20.804;2023-06-22T02:11:11;13.68;;;9.27;;
75289;SDS011;63883;48.996;20.804;2023-06-22T02:13:40;17.08;;;9.88;;
75289;SDS011;63883;48.996;20.804;2023-06-22T02:16:11;13.73;;;9.35;;
75289;SDS011;63883;48.996;20.804;2023-06-22T02:18:37;13.70;;;9.30;;
75289;SDS011;63883;48.996;20.804;2023-06-22T02:21:05;11.55;;;8.40;;
75289;SDS011;63883;48.996;20.804;2023-06-22T02:23:31;13.55;;;9.57;;
75289;SDS011;63883;48.996;20.804;2023-06-22T02:26:00;13.10;;;8.57;;
75289;SDS011;63883;48.996;20.804;2023-06-22T02:28:27;14.73;;;8.40;;
75289;SDS011;63883;48.996;20.804;2023-06-22T02:30:53;13.93;;;9.02;;
75289;SDS011;63883;48.996;20.804;2023-06-22T02:33:18;12.25;;;8.40;;
75289;SDS011;63883;48.996;20.804;2023-06-22T02:35:44;13.02;;;8.50;;
75289;SDS011;63883;48.996;20.804;2023-06-22T02:38:13;13.88;;;8.68;;
75289;SDS011;63883;48.996;20.804;2023-06-22T02:40:39;13.07;;;8.13;;
75289;SDS011;63883;48.996;20.804;2023-06-22T02:43:05;15.82;;;9.40;;
75289;SDS011;63883;48.996;20.804;2023-06-22T02:45:31;12.25;;;8.13;;
75289;SDS011;63883;48.996;20.804;2023-06-22T02:47:57;12.93;;;8.57;;
75289;SDS011;63883;48.996;20.804;2023-06-22T02:50:23;11.52;;;8.35;;
75289;SDS011;63883;48.996;20.804;2023-06-22T02:52:49;11.48;;;8.13;;
75289;SDS011;63883;48.996;20.804;2023-06-22T02:55:15;12.10;;;8.05;;
75289;SDS011;63883;48.996;20.804;2023-06-22T02:57:40;12.38;;;8.48;;
75289;SDS011;63883;48.996;20.804;2023-06-22T03:00:09;15.88;;;8.80;;
75289;SDS011;63883;48.996;20.804;2023-06-22T03:02:46;13.50;;;8.68;;
75289;SDS011;63883;48.996;20.804;2023-06-22T03:05:13;15.10;;;8.75;;
75289;SDS011;63883;48.996;20.804;2023-06-22T03:07:40;12.43;;;8.55;;
75289;SDS011;63883;48.996;20.804;2023-06-22T03:10:08;14.77;;;8.63;;
75289;SDS011;63883;48.996;20.804;2023-06-22T03:12:35;15.00;;;9.10;;
75289;SDS011;63883;48.996;20.804;2023-06-22T03:15:02;15.88;;;9.80;;
75289;SDS011;63883;48.996;20.804;2023-06-22T03:17:28;12.07;;;8.43;;
75289;SDS011;63883;48.996;20.804;2023-06-22T03:19:53;14.38;;;8.70;;
75289;SDS011;63883;48.996;20.804;2023-06-22T03:22:19;13.00;;;8.68;;
75289;SDS011;63883;48.996;20.804;2023-06-22T03:24:45;14.15;;;9.13;;
75289;SDS011;63883;48.996;20.804;2023-06-22T03:27:11;15.77;;;8.48;;
75289;SDS011;63883;48.996;20.804;2023-06-22T03:29:36;13.60;;;8.93;;
75289;SDS011;63883;48.996;20.804;2023-06-22T03:32:02;16.23;;;9.05;;
75289;SDS011;63883;48.996;20.804;2023-06-22T03:34:30;18.23;;;9.93;;
75289;SDS011;63883;48.996;20.804;2023-06-22T03:36:58;14.60;;;8.95;;
75289;SDS011;63883;48.996;20.804;2023-06-22T03:39:24;15.00;;;9.70;;
75289;SDS011;63883;48.996;20.804;2023-06-22T03:41:50;16.13;;;9.57;;
75289;SDS011;63883;48.996;20.804;2023-06-22T03:44:15;12.35;;;8.98;;
75289;SDS011;63883;48.996;20.804;2023-06-22T03:46:41;12.20;;;8.70;;
75289;SDS011;63883;48.996;20.804;2023-06-22T03:49:07;15.00;;;8.82;;
75289;SDS011;63883;48.996;20.804;2023-06-22T03:51:33;16.92;;;9.07;;
75289;SDS011;63883;48.996;20.804;2023-06-22T03:53:58;11.63;;;8.38;;
75289;SDS011;63883;48.996;20.804;2023-06-22T03:56:24;13.82;;;8.18;;
75289;SDS011;63883;48.996;20.804;2023-06-22T03:58:50;12.27;;;8.50;;
75289;SDS011;63883;48.996;20.804;2023-06-22T04:01:16;14.57;;;9.73;;
75289;SDS011;63883;48.996;20.804;2023-06-22T04:03:42;15.20;;;8.82;;
75289;SDS011;63883;48.996;20.804;2023-06-22T04:06:08;13.40;;;8.63;;
75289;SDS011;63883;48.996;20.804;2023-06-22T04:08:34;12.48;;;8.32;;
75289;SDS011;63883;48.996;20.804;2023-06-22T04:10:59;14.13;;;9.00;;
75289;SDS011;63883;48.996;20.804;2023-06-22T04:13:25;14.63;;;9.82;;
75289;SDS011;63883;48.996;20.804;2023-06-22T04:15:51;11.48;;;8.23;;
75289;SDS011;63883;48.996;20.804;2023-06-22T04:18:16;11.25;;;8.35;;
75289;SDS011;63883;48.996;20.804;2023-06-22T04:20:42;15.75;;;9.10;;
75289;SDS011;63883;48.996;20.804;2023-06-22T04:23:10;15.05;;;9.68;;
75289;SDS011;63883;48.996;20.804;2023-06-22T04:25:35;13.07;;;9.05;;
75289;SDS011;63883;48.996;20.804;2023-06-22T04:28:01;12.50;;;8.77;;
75289;SDS011;63883;48.996;20.804;2023-06-22T04:30:28;10.75;;;8.43;;
75289;SDS011;63883;48.996;20.804;2023-06-22T04:32:56;13.35;;;9.38;;
75289;SDS011;63883;48.996;20.804;2023-06-22T04:35:23;15.55;;;9.40;;
75289;SDS011;63883;48.996;20.804;2023-06-22T04:37:50;13.93;;;9.48;;
75289;SDS011;63883;48.996;20.804;2023-06-22T04:40:21;17.67;;;9.63;;
75289;SDS011;63883;48.996;20.804;2023-06-22T04:42:50;13.63;;;9.35;;
75289;SDS011;63883;48.996;20.804;2023-06-22T04:45:19;14.98;;;8.93;;
75289;SDS011;63883;48.996;20.804;2023-06-22T04:47:45;13.48;;;9.63;;
75289;SDS011;63883;48.996;20.804;2023-06-22T04:50:11;14.75;;;9.63;;
75289;SDS011;63883;48.996;20.804;2023-06-22T04:52:37;15.05;;;9.10;;
75289;SDS011;63883;48.996;20.804;2023-06-22T04:55:03;13.88;;;8.77;;
75289;SDS011;63883;48.996;20.804;2023-06-22T04:57:29;14.63;;;9.77;;
75289;SDS011;63883;48.996;20.804;2023-06-22T04:59:58;17.02;;;11.07;;
75289;SDS011;63883;48.996;20.804;2023-06-22T05:02:44;14.80;;;9.63;;
75289;SDS011;63883;48.996;20.804;2023-06-22T05:05:11;13.55;;;9.38;;
75289;SDS011;63883;48.996;20.804;2023-06-22T05:07:45;15.88;;;10.77;;
75289;SDS011;63883;48.996;20.804;2023-06-22T05:10:13;14.57;;;10.20;;
75289;SDS011;63883;48.996;20.804;2023-06-22T05:12:40;13.85;;;9.60;;
75289;SDS011;63883;48.996;20.804;2023-06-22T05:15:07;15.98;;;9.95;;
75289;SDS011;63883;48.996;20.804;2023-06-22T05:17:34;14.85;;;10.38;;
75289;SDS011;63883;48.996;20.804;2023-06-22T05:20:00;13.25;;;9.60;;
75289;SDS011;63883;48.996;20.804;2023-06-22T05:22:26;14.85;;;10.02;;
75289;SDS011;63883;48.996;20.804;2023-06-22T05:24:52;16.42;;;10.48;;
75289;SDS011;63883;48.996;20.804;2023-06-22T05:27:17;13.88;;;9.85;;
75289;SDS011;63883;48.996;20.804;2023-06-22T05:29:43;12.52;;;9.43;;
75289;SDS011;63883;48.996;20.804;2023-06-22T05:32:09;12.82;;;9.60;;
75289;SDS011;63883;48.996;20.804;2023-06-22T05:34:35;13.90;;;9.75;;
75289;SDS011;63883;48.996;20.804;2023-06-22T05:37:01;15.50;;;10.10;;
75289;SDS011;63883;48.996;20.804;2023-06-22T05:39:27;14.10;;;9.60;;
75289;SDS011;63883;48.996;20.804;2023-06-22T05:41:53;13.75;;;9.32;;
75289;SDS011;63883;48.996;20.804;2023-06-22T05:44:19;13.32;;;9.57;;
75289;SDS011;63883;48.996;20.804;2023-06-22T05:46:44;13.73;;;9.75;;
75289;SDS011;63883;48.996;20.804;2023-06-22T05:49:12;13.00;;;9.07;;
75289;SDS011;63883;48.996;20.804;2023-06-22T05:51:38;14.40;;;9.80;;
75289;SDS011;63883;48.996;20.804;2023-06-22T05:54:05;13.55;;;8.88;;
75289;SDS011;63883;48.996;20.804;2023-06-22T05:56:30;14.25;;;8.63;;
75289;SDS011;63883;48.996;20.804;2023-06-22T05:58:56;11.82;;;8.68;;
75289;SDS011;63883;48.996;20.804;2023-06-22T06:01:22;11.02;;;8.77;;
75289;SDS011;63883;48.996;20.804;2023-06-22T06:03:48;12.43;;;8.65;;
75289;SDS011;63883;48.996;20.804;2023-06-22T06:06:15;13.55;;;8.98;;
75289;SDS011;63883;48.996;20.804;2023-06-22T06:08:41;12.20;;;8.80;;
75289;SDS011;63883;48.996;20.804;2023-06-22T06:11:07;12.43;;;9.23;;
75289;SDS011;63883;48.996;20.804;2023-06-22T06:13:33;12.77;;;8.90;;
75289;SDS011;63883;48.996;20.804;2023-06-22T06:15:58;12.02;;;8.73;;
75289;SDS011;63883;48.996;20.804;2023-06-22T06:18:24;12.70;;;9.45;;
75289;SDS011;63883;48.996;20.804;2023-06-22T06:20:50;12.90;;;9.32;;
75289;SDS011;63883;48.996;20.804;2023-06-22T06:23:16;12.02;;;8.40;;
75289;SDS011;63883;48.996;20.804;2023-06-22T06:25:41;12.35;;;8.43;;
75289;SDS011;63883;48.996;20.804;2023-06-22T06:28:07;12.15;;;8.48;;
75289;SDS011;63883;48.996;20.804;2023-06-22T06:30:33;12.65;;;8.63;;
75289;SDS011;63883;48.996;20.804;2023-06-22T06:32:59;11.15;;;8.15;;
75289;SDS011;63883;48.996;20.804;2023-06-22T06:35:24;8.77;;;7.07;;
75289;SDS011;63883;48.996;20.804;2023-06-22T06:37:50;12.77;;;7.28;;
75289;SDS011;63883;48.996;20.804;2023-06-22T06:40:17;10.82;;;6.97;;
75289;SDS011;63883;48.996;20.804;2023-06-22T06:42:45;9.65;;;6.50;;
75289;SDS011;63883;48.996;20.804;2023-06-22T06:45:14;10.30;;;7.03;;
75289;SDS011;63883;48.996;20.804;2023-06-22T06:47:43;8.88;;;7.07;;
75289;SDS011;63883;48.996;20.804;2023-06-22T06:50:10;9.15;;;6.03;;
75289;SDS011;63883;48.996;20.804;2023-06-22T06:52:37;8.98;;;6.43;;
75289;SDS011;63883;48.996;20.804;2023-06-22T06:55:03;10.45;;;6.95;;
75289;SDS011;63883;48.996;20.804;2023-06-22T06:57:34;10.18;;;7.50;;
75289;SDS011;63883;48.996;20.804;2023-06-22T06:59:59;9.90;;;7.25;;
75289;SDS011;63883;48.996;20.804;2023-06-22T07:02:25;11.05;;;7.80;;
75289;SDS011;63883;48.996;20.804;2023-06-22T07:04:53;10.75;;;7.68;;
75289;SDS011;63883;48.996;20.804;2023-06-22T07:07:20;12.55;;;8.27;;
75289;SDS011;63883;48.996;20.804;2023-06-22T07:09:46;12.18;;;8.32;;
75289;SDS011;63883;48.996;20.804;2023-06-22T07:12:12;10.07;;;7.97;;
75289;SDS011;63883;48.996;20.804;2023-06-22T07:14:38;12.95;;;8.30;;
75289;SDS011;63883;48.996;20.804;2023-06-22T07:17:04;10.75;;;7.70;;
75289;SDS011;63883;48.996;20.804;2023-06-22T07:19:29;12.35;;;8.25;;
75289;SDS011;63883;48.996;20.804;2023-06-22T07:21:56;10.60;;;7.57;;
75289;SDS011;63883;48.996;20.804;2023-06-22T07:24:22;11.32;;;8.23;;
75289;SDS011;63883;48.996;20.804;2023-06-22T07:26:48;11.10;;;8.02;;
75289;SDS011;63883;48.996;20.804;2023-06-22T07:29:18;10.75;;;8.07;;
75289;SDS011;63883;48.996;20.804;2023-06-22T07:31:46;12.23;;;7.85;;
75289;SDS011;63883;48.996;20.804;2023-06-22T07:34:12;11.93;;;8.15;;
75289;SDS011;63883;48.996;20.804;2023-06-22T07:36:38;10.85;;;8.25;;
75289;SDS011;63883;48.996;20.804;2023-06-22T07:39:04;11.43;;;7.95;;
75289;SDS011;63883;48.996;20.804;2023-06-22T07:41:30;10.55;;;8.02;;
75289;SDS011;63883;48.996;20.804;2023-06-22T07:43:56;10.10;;;8.07;;
75289;SDS011;63883;48.996;20.804;2023-06-22T07:46:22;9.90;;;8.10;;
75289;SDS011;63883;48.996;20.804;2023-06-22T07:48:48;11.55;;;9.10;;
75289;SDS011;63883;48.996;20.804;2023-06-22T07:51:14;10.98;;;8.13;;
75289;SDS011;63883;48.996;20.804;2023-06-22T07:53:43;10.15;;;7.88;;
75289;SDS011;63883;48.996;20.804;2023-06-22T07:56:10;11.95;;;7.90;;
75289;SDS011;63883;48.996;20.804;2023-06-22T07:58:36;9.82;;;7.65;;
75289;SDS011;63883;48.996;20.804;2023-06-22T08:01:02;9.10;;;7.13;;
75289;SDS011;63883;48.996;20.804;2023-06-22T08:03:28;9.80;;;7.60;;
75289;SDS011;63883;48.996;20.804;2023-06-22T08:05:54;11.82;;;8.05;;
75289;SDS011;63883;48.996;20.804;2023-06-22T08:08:20;10.23;;;7.88;;
75289;SDS011;63883;48.996;20.804;2023-06-22T08:10:46;8.07;;;7.15;;
75289;SDS011;63883;48.996;20.804;2023-06-22T08:13:11;12.35;;;8.38;;
75289;SDS011;63883;48.996;20.804;2023-06-22T08:15:37;10.82;;;8.35;;
75289;SDS011;63883;48.996;20.804;2023-06-22T08:18:03;11.48;;;8.25;;
75289;SDS011;63883;48.996;20.804;2023-06-22T08:20:28;12.30;;;8.20;;
75289;SDS011;63883;48.996;20.804;2023-06-22T08:22:55;12.32;;;8.77;;
75289;SDS011;63883;48.996;20.804;2023-06-22T08:25:21;11.88;;;7.78;;
75289;SDS011;63883;48.996;20.804;2023-06-22T08:27:47;10.82;;;7.93;;
75289;SDS011;63883;48.996;20.804;2023-06-22T08:30:14;10.00;;;7.78;;
75289;SDS011;63883;48.996;20.804;2023-06-22T08:32:40;13.20;;;8.43;;
75289;SDS011;63883;48.996;20.804;2023-06-22T08:35:06;16.92;;;9.13;;
75289;SDS011;63883;48.996;20.804;2023-06-22T08:37:33;11.57;;;7.45;;
75289;SDS011;63883;48.996;20.804;2023-06-22T08:40:01;12.57;;;7.97;;
75289;SDS011;63883;48.996;20.804;2023-06-22T08:42:33;10.73;;;7.90;;
75289;SDS011;63883;48.996;20.804;2023-06-22T08:44:59;17.88;;;9.40;;
75289;SDS011;63883;48.996;20.804;2023-06-22T08:47:25;9.73;;;7.90;;
75289;SDS011;63883;48.996;20.804;2023-06-22T08:52:18;11.48;;;8.45;;
75289;SDS011;63883;48.996;20.804;2023-06-22T08:54:45;10.52;;;7.80;;
75289;SDS011;63883;48.996;20.804;2023-06-22T08:57:11;9.93;;;7.75;;
75289;SDS011;63883;48.996;20.804;2023-06-22T08:59:37;10.45;;;8.10;;
75289;SDS011;63883;48.996;20.804;2023-06-22T09:02:02;9.85;;;7.30;;
75289;SDS011;63883;48.996;20.804;2023-06-22T09:04:28;10.23;;;7.40;;
75289;SDS011;63883;48.996;20.804;2023-06-22T09:06:54;10.32;;;7.47;;
75289;SDS011;63883;48.996;20.804;2023-06-22T09:09:20;10.32;;;7.57;;
75289;SDS011;63883;48.996;20.804;2023-06-22T09:11:47;8.45;;;7.00;;
75289;SDS011;63883;48.996;20.804;2023-06-22T09:14:13;9.73;;;7.50;;
75289;SDS011;63883;48.996;20.804;2023-06-22T09:16:38;8.77;;;7.18;;
75289;SDS011;63883;48.996;20.804;2023-06-22T09:19:04;9.50;;;7.45;;
75289;SDS011;63883;48.996;20.804;2023-06-22T09:21:29;9.20;;;7.57;;
75289;SDS011;63883;48.996;20.804;2023-06-22T09:23:56;10.73;;;7.45;;
75289;SDS011;63883;48.996;20.804;2023-06-22T09:26:22;9.25;;;7.78;;
75289;SDS011;63883;48.996;20.804;2023-06-22T09:28:49;10.95;;;7.53;;
75289;SDS011;63883;48.996;20.804;2023-06-22T09:31:15;11.18;;;7.53;;
75289;SDS011;63883;48.996;20.804;2023-06-22T09:33:42;10.68;;;7.88;;
75289;SDS011;63883;48.996;20.804;2023-06-22T09:36:07;10.32;;;8.55;;
75289;SDS011;63883;48.996;20.804;2023-06-22T09:38:39;10.70;;;7.32;;
75289;SDS011;63883;48.996;20.804;2023-06-22T09:41:05;10.05;;;7.68;;
75289;SDS011;63883;48.996;20.804;2023-06-22T09:43:31;10.02;;;8.30;;
75289;SDS011;63883;48.996;20.804;2023-06-22T09:46:00;11.27;;;8.55;;
75289;SDS011;63883;48.996;20.804;2023-06-22T09:48:27;11.20;;;8.20;;
75289;SDS011;63883;48.996;20.804;2023-06-22T09:50:54;11.10;;;8.13;;
75289;SDS011;63883;48.996;20.804;2023-06-22T09:53:20;10.45;;;8.50;;
75289;SDS011;63883;48.996;20.804;2023-06-22T09:55:46;10.15;;;8.02;;
75289;SDS011;63883;48.996;20.804;2023-06-22T09:58:12;10.80;;;8.50;;
75289;SDS011;63883;48.996;20.804;2023-06-22T10:00:37;9.48;;;8.02;;
75289;SDS011;63883;48.996;20.804;2023-06-22T10:03:03;12.02;;;8.52;;
75289;SDS011;63883;48.996;20.804;2023-06-22T10:05:29;11.82;;;8.57;;
75289;SDS011;63883;48.996;20.804;2023-06-22T10:07:54;9.15;;;8.25;;
75289;SDS011;63883;48.996;20.804;2023-06-22T10:10:20;10.00;;;8.52;;
75289;SDS011;63883;48.996;20.804;2023-06-22T10:12:46;10.40;;;8.40;;
75289;SDS011;63883;48.996;20.804;2023-06-22T10:15:14;10.85;;;8.75;;
75289;SDS011;63883;48.996;20.804;2023-06-22T10:17:40;11.48;;;9.27;;
75289;SDS011;63883;48.996;20.804;2023-06-22T10:20:06;11.13;;;8.63;;
75289;SDS011;63883;48.996;20.804;2023-06-22T10:22:43;10.88;;;8.93;;
75289;SDS011;63883;48.996;20.804;2023-06-22T10:25:10;11.52;;;8.27;;
75289;SDS011;63883;48.996;20.804;2023-06-22T10:27:37;10.63;;;8.90;;
75289;SDS011;63883;48.996;20.804;2023-06-22T10:30:05;13.50;;;9.02;;
75289;SDS011;63883;48.996;20.804;2023-06-22T10:32:32;11.02;;;8.77;;
75289;SDS011;63883;48.996;20.804;2023-06-22T10:34:58;12.75;;;8.73;;
75289;SDS011;63883;48.996;20.804;2023-06-22T10:37:24;19.17;;;9.27;;
75289;SDS011;63883;48.996;20.804;2023-06-22T10:39:49;11.45;;;8.85;;
75289;SDS011;63883;48.996;20.804;2023-06-22T10:42:15;11.50;;;9.73;;
75289;SDS011;63883;48.996;20.804;2023-06-22T10:44:41;12.10;;;8.55;;
75289;SDS011;63883;48.996;20.804;2023-06-22T10:47:09;10.60;;;8.73;;
75289;SDS011;63883;48.996;20.804;2023-06-22T10:49:37;11.13;;;8.95;;
75289;SDS011;63883;48.996;20.804;2023-06-22T10:52:03;9.75;;;8.75;;
75289;SDS011;63883;48.996;20.804;2023-06-22T10:54:30;11.55;;;8.60;;
75289;SDS011;63883;48.996;20.804;2023-06-22T11:01:49;11.18;;;9.30;;
75289;SDS011;63883;48.996;20.804;2023-06-22T11:04:15;11.57;;;9.02;;
75289;SDS011;63883;48.996;20.804;2023-06-22T11:06:43;12.02;;;9.38;;
75289;SDS011;63883;48.996;20.804;2023-06-22T11:09:08;12.38;;;9.40;;
75289;SDS011;63883;48.996;20.804;2023-06-22T11:11:34;11.73;;;10.52;;
75289;SDS011;63883;48.996;20.804;2023-06-22T11:14:00;14.52;;;12.02;;
75289;SDS011;63883;48.996;20.804;2023-06-22T11:16:26;12.75;;;11.10;;
75289;SDS011;63883;48.996;20.804;2023-06-22T11:18:52;12.10;;;10.45;;
75289;SDS011;63883;48.996;20.804;2023-06-22T11:21:18;12.32;;;11.02;;
75289;SDS011;63883;48.996;20.804;2023-06-22T11:23:43;14.23;;;11.35;;
75289;SDS011;63883;48.996;20.804;2023-06-22T11:26:09;14.75;;;10.60;;
75289;SDS011;63883;48.996;20.804;2023-06-22T11:28:34;16.38;;;10.93;;
75289;SDS011;63883;48.996;20.804;2023-06-22T11:31:00;12.70;;;11.32;;
75289;SDS011;63883;48.996;20.804;2023-06-22T11:33:27;13.32;;;10.77;;
75289;SDS011;63883;48.996;20.804;2023-06-22T11:35:52;11.88;;;10.50;;
75289;SDS011;63883;48.996;20.804;2023-06-22T11:38:18;14.32;;;10.70;;
75289;SDS011;63883;48.996;20.804;2023-06-22T11:40:44;13.73;;;10.43;;
75289;SDS011;63883;48.996;20.804;2023-06-22T11:43:09;11.63;;;9.73;;
75289;SDS011;63883;48.996;20.804;2023-06-22T11:45:35;12.60;;;10.20;;
75289;SDS011;63883;48.996;20.804;2023-06-22T11:48:01;14.32;;;10.57;;
75289;SDS011;63883;48.996;20.804;2023-06-22T11:50:26;10.70;;;9.55;;
75289;SDS011;63883;48.996;20.804;2023-06-22T11:52:55;12.27;;;10.38;;
75289;SDS011;63883;48.996;20.804;2023-06-22T11:55:20;11.75;;;10.48;;
75289;SDS011;63883;48.996;20.804;2023-06-22T11:57:56;13.52;;;11.05;;
75289;SDS011;63883;48.996;20.804;2023-06-22T12:00:25;11.80;;;10.25;;
75289;SDS011;63883;48.996;20.804;2023-06-22T12:02:51;12.25;;;9.82;;
75289;SDS011;63883;48.996;20.804;2023-06-22T12:05:20;12.13;;;10.38;;
75289;SDS011;63883;48.996;20.804;2023-06-22T12:07:46;11.85;;;10.00;;
75289;SDS011;63883;48.996;20.804;2023-06-22T12:10:12;12.48;;;10.23;;
75289;SDS011;63883;48.996;20.804;2023-06-22T12:12:38;11.93;;;10.13;;
75289;SDS011;63883;48.996;20.804;2023-06-22T12:15:04;12.45;;;9.93;;
75289;SDS011;63883;48.996;20.804;2023-06-22T12:17:30;11.88;;;10.35;;
75289;SDS011;63883;48.996;20.804;2023-06-22T12:19:56;11.52;;;9.65;;
75289;SDS011;63883;48.996;20.804;2023-06-22T12:22:22;12.88;;;10.68;;
75289;SDS011;63883;48.996;20.804;2023-06-22T12:24:48;13.80;;;10.02;;
75289;SDS011;63883;48.996;20.804;2023-06-22T12:27:14;11.65;;;10.45;;
75289;SDS011;63883;48.996;20.804;2023-06-22T12:29:41;11.30;;;9.90;;
75289;SDS011;63883;48.996;20.804;2023-06-22T12:32:07;11.30;;;10.10;;
75289;SDS011;63883;48.996;20.804;2023-06-22T12:34:33;11.20;;;9.82;;
75289;SDS011;63883;48.996;20.804;2023-06-22T12:36:59;10.50;;;8.90;;
75289;SDS011;63883;48.996;20.804;2023-06-22T12:39:24;11.90;;;9.90;;
75289;SDS011;63883;48.996;20.804;2023-06-22T12:41:50;12.52;;;10.05;;
75289;SDS011;63883;48.996;20.804;2023-06-22T12:44:17;10.45;;;9.13;;
75289;SDS011;63883;48.996;20.804;2023-06-22T12:46:42;12.90;;;9.05;;
75289;SDS011;63883;48.996;20.804;2023-06-22T12:49:08;12.40;;;9.52;;
75289;SDS011;63883;48.996;20.804;2023-06-22T12:51:39;12.98;;;9.70;;
75289;SDS011;63883;48.996;20.804;2023-06-22T12:54:05;11.10;;;9.00;;
75289;SDS011;63883;48.996;20.804;2023-06-22T12:56:31;11.18;;;9.90;;
75289;SDS011;63883;48.996;20.804;2023-06-22T12:58:57;9.93;;;8.82;;
75289;SDS011;63883;48.996;20.804;2023-06-22T13:01:22;12.00;;;9.45;;
75289;SDS011;63883;48.996;20.804;2023-06-22T13:03:48;10.95;;;9.10;;
75289;SDS011;63883;48.996;20.804;2023-06-22T13:06:14;11.52;;;9.82;;
75289;SDS011;63883;48.996;20.804;2023-06-22T13:08:39;12.13;;;10.10;;
75289;SDS011;63883;48.996;20.804;2023-06-22T13:11:05;14.02;;;9.90;;
75289;SDS011;63883;48.996;20.804;2023-06-22T13:13:31;11.38;;;9.88;;
75289;SDS011;63883;48.996;20.804;2023-06-22T13:15:56;11.30;;;10.00;;
75289;SDS011;63883;48.996;20.804;2023-06-22T13:18:22;10.65;;;9.52;;
75289;SDS011;63883;48.996;20.804;2023-06-22T13:20:48;10.43;;;9.43;;
75289;SDS011;63883;48.996;20.804;2023-06-22T13:23:14;10.25;;;9.15;;
75289;SDS011;63883;48.996;20.804;2023-06-22T13:25:39;10.20;;;9.00;;
75289;SDS011;63883;48.996;20.804;2023-06-22T13:28:05;10.57;;;9.48;;
75289;SDS011;63883;48.996;20.804;2023-06-22T13:30:30;11.55;;;9.45;;
75289;SDS011;63883;48.996;20.804;2023-06-22T13:32:57;10.90;;;9.80;;
75289;SDS011;63883;48.996;20.804;2023-06-22T13:35:22;10.65;;;9.65;;
75289;SDS011;63883;48.996;20.804;2023-06-22T13:37:48;11.63;;;9.85;;
75289;SDS011;63883;48.996;20.804;2023-06-22T13:40:14;11.23;;;9.77;;
75289;SDS011;63883;48.996;20.804;2023-06-22T13:42:40;11.50;;;10.40;;
75289;SDS011;63883;48.996;20.804;2023-06-22T13:45:06;11.48;;;9.65;;
75289;SDS011;63883;48.996;20.804;2023-06-22T13:47:33;11.88;;;10.00;;
75289;SDS011;63883;48.996;20.804;2023-06-22T13:49:58;13.25;;;10.55;;
75289;SDS011;63883;48.996;20.804;2023-06-22T13:52:24;12.55;;;10.15;;
75289;SDS011;63883;48.996;20.804;2023-06-22T13:54:50;10.30;;;9.20;;
75289;SDS011;63883;48.996;20.804;2023-06-22T13:57:16;10.50;;;9.25;;
75289;SDS011;63883;48.996;20.804;2023-06-22T13:59:42;9.98;;;8.65;;
75289;SDS011;63883;48.996;20.804;2023-06-22T14:02:08;10.52;;;9.07;;
75289;SDS011;63883;48.996;20.804;2023-06-22T14:04:33;10.43;;;8.77;;
75289;SDS011;63883;48.996;20.804;2023-06-22T14:06:59;9.20;;;7.80;;
75289;SDS011;63883;48.996;20.804;2023-06-22T14:09:24;8.82;;;7.93;;
75289;SDS011;63883;48.996;20.804;2023-06-22T14:11:50;10.40;;;8.43;;
75289;SDS011;63883;48.996;20.804;2023-06-22T14:14:16;8.52;;;7.63;;
75289;SDS011;63883;48.996;20.804;2023-06-22T14:16:42;8.02;;;7.22;;
75289;SDS011;63883;48.996;20.804;2023-06-22T14:19:07;8.18;;;7.30;;
75289;SDS011;63883;48.996;20.804;2023-06-22T14:21:33;8.00;;;7.18;;
75289;SDS011;63883;48.996;20.804;2023-06-22T14:23:59;8.13;;;7.32;;
75289;SDS011;63883;48.996;20.804;2023-06-22T14:26:26;11.48;;;7.57;;
75289;SDS011;63883;48.996;20.804;2023-06-22T14:28:53;8.80;;;7.18;;
75289;SDS011;63883;48.996;20.804;2023-06-22T14:31:19;8.73;;;7.82;;
75289;SDS011;63883;48.996;20.804;2023-06-22T14:33:48;9.45;;;8.00;;
75289;SDS011;63883;48.996;20.804;2023-06-22T14:36:15;10.95;;;8.63;;
75289;SDS011;63883;48.996;20.804;2023-06-22T14:38:42;9.70;;;8.43;;
75289;SDS011;63883;48.996;20.804;2023-06-22T14:41:08;8.63;;;7.70;;